sensor_id;sensor_type;location;lat;lon;timestamp;P1;durP1;ratioP1;P2;durP2;ratioP2
9260;SDS011;4667;42.726;23.252;2022-09-09T00:00:26;5.03;;;3.80;;
9260;SDS011;4667;42.726;23.252;2022-09-09T00:03:03;5.23;;;4.37;;
9260;SDS011;4667;42.726;23.252;2022-09-09T00:05:37;5.30;;;3.90;;
9260;SDS011;4667;42.726;23.252;2022-09-09T00:08:11;5.70;;;4.43;;
9260;SDS011;4667;42.726;23.252;2022-09-09T00:10:46;5.90;;;4.03;;
9260;SDS011;4667;42.726;23.252;2022-09-09T00:13:19;4.27;;;3.87;;
9260;SDS011;4667;42.726;23.252;2022-09-09T00:15:53;7.67;;;4.57;;
9260;SDS011;4667;42.726;23.252;2022-09-09T00:18:24;5.80;;;4.87;;
9260;SDS011;4667;42.726;23.252;2022-09-09T00:20:57;4.23;;;3.83;;
9260;SDS011;4667;42.726;23.252;2022-09-09T00:23:28;7.53;;;4.57;;
9260;SDS011;4667;42.726;23.252;2022-09-09T00:26:03;5.97;;;4.10;;
9260;SDS011;4667;42.726;23.252;2022-09-09T00:28:36;7.27;;;4.80;;
9260;SDS011;4667;42.726;23.252;2022-09-09T00:31:11;6.43;;;4.93;;
9260;SDS011;4667;42.726;23.252;2022-09-09T00:33:40;7.77;;;4.83;;
9260;SDS011;4667;42.726;23.252;2022-09-09T00:36:09;6.50;;;4.37;;
9260;SDS011;4667;42.726;23.252;2022-09-09T00:38:42;4.93;;;4.43;;
9260;SDS011;4667;42.726;23.252;2022-09-09T00:41:14;6.67;;;5.03;;
9260;SDS011;4667;42.726;23.252;2022-09-09T00:43:49;4.93;;;4.20;;
9260;SDS011;4667;42.726;23.252;2022-09-09T00:49:21;6.40;;;4.40;;
9260;SDS011;4667;42.726;23.252;2022-09-09T00:51:59;6.30;;;5.03;;
9260;SDS011;4667;42.726;23.252;2022-09-09T00:54:40;5.73;;;4.90;;
9260;SDS011;4667;42.726;23.252;2022-09-09T00:57:19;6.03;;;5.03;;
9260;SDS011;4667;42.726;23.252;2022-09-09T00:59:55;4.93;;;4.43;;
9260;SDS011;4667;42.726;23.252;2022-09-09T01:02:28;4.93;;;4.43;;
9260;SDS011;4667;42.726;23.252;2022-09-09T01:04:59;6.03;;;4.70;;
9260;SDS011;4667;42.726;23.252;2022-09-09T01:07:38;6.03;;;5.43;;
9260;SDS011;4667;42.726;23.252;2022-09-09T01:10:07;5.97;;;4.47;;
9260;SDS011;4667;42.726;23.252;2022-09-09T01:12:45;6.40;;;5.13;;
9260;SDS011;4667;42.726;23.252;2022-09-09T01:15:14;9.00;;;5.20;;
9260;SDS011;4667;42.726;23.252;2022-09-09T01:17:50;4.97;;;4.30;;
9260;SDS011;4667;42.726;23.252;2022-09-09T01:20:24;6.70;;;5.73;;
9260;SDS011;4667;42.726;23.252;2022-09-09T01:23:00;6.70;;;4.87;;
9260;SDS011;4667;42.726;23.252;2022-09-09T01:26:02;7.60;;;5.07;;
9260;SDS011;4667;42.726;23.252;2022-09-09T01:28:42;6.07;;;5.07;;
9260;SDS011;4667;42.726;23.252;2022-09-09T01:31:12;5.47;;;4.40;;
9260;SDS011;4667;42.726;23.252;2022-09-09T01:33:43;5.93;;;5.20;;
9260;SDS011;4667;42.726;23.252;2022-09-09T01:36:10;6.70;;;5.33;;
9260;SDS011;4667;42.726;23.252;2022-09-09T01:38:41;6.10;;;4.57;;
9260;SDS011;4667;42.726;23.252;2022-09-09T01:41:09;5.70;;;4.00;;
9260;SDS011;4667;42.726;23.252;2022-09-09T01:43:36;5.53;;;4.67;;
9260;SDS011;4667;42.726;23.252;2022-09-09T01:46:04;7.73;;;5.03;;
9260;SDS011;4667;42.726;23.252;2022-09-09T01:48:30;5.17;;;4.67;;
9260;SDS011;4667;42.726;23.252;2022-09-09T01:50:57;8.03;;;4.80;;
9260;SDS011;4667;42.726;23.252;2022-09-09T01:53:24;6.20;;;4.80;;
9260;SDS011;4667;42.726;23.252;2022-09-09T01:55:54;5.73;;;4.83;;
9260;SDS011;4667;42.726;23.252;2022-09-09T01:58:31;5.63;;;4.50;;
9260;SDS011;4667;42.726;23.252;2022-09-09T02:01:05;6.03;;;4.50;;
9260;SDS011;4667;42.726;23.252;2022-09-09T02:03:39;5.43;;;4.40;;
9260;SDS011;4667;42.726;23.252;2022-09-09T02:06:17;6.77;;;4.87;;
9260;SDS011;4667;42.726;23.252;2022-09-09T02:08:53;7.80;;;5.20;;
9260;SDS011;4667;42.726;23.252;2022-09-09T02:11:23;4.83;;;4.33;;
9260;SDS011;4667;42.726;23.252;2022-09-09T02:13:54;5.47;;;4.77;;
9260;SDS011;4667;42.726;23.252;2022-09-09T02:16:24;6.83;;;4.70;;
9260;SDS011;4667;42.726;23.252;2022-09-09T02:18:55;5.10;;;4.57;;
9260;SDS011;4667;42.726;23.252;2022-09-09T02:21:27;5.77;;;4.93;;
9260;SDS011;4667;42.726;23.252;2022-09-09T02:23:56;5.83;;;4.33;;
9260;SDS011;4667;42.726;23.252;2022-09-09T02:26:29;5.43;;;4.80;;
9260;SDS011;4667;42.726;23.252;2022-09-09T02:29:01;5.10;;;4.60;;
9260;SDS011;4667;42.726;23.252;2022-09-09T02:31:32;6.27;;;4.70;;
9260;SDS011;4667;42.726;23.252;2022-09-09T02:34:01;5.90;;;5.17;;
9260;SDS011;4667;42.726;23.252;2022-09-09T02:36:32;5.67;;;4.83;;
9260;SDS011;4667;42.726;23.252;2022-09-09T02:39:01;5.20;;;4.70;;
9260;SDS011;4667;42.726;23.252;2022-09-09T02:41:30;6.20;;;4.87;;
9260;SDS011;4667;42.726;23.252;2022-09-09T02:44:01;5.53;;;4.53;;
9260;SDS011;4667;42.726;23.252;2022-09-09T02:46:42;6.00;;;4.63;;
9260;SDS011;4667;42.726;23.252;2022-09-09T02:49:25;5.37;;;4.87;;
9260;SDS011;4667;42.726;23.252;2022-09-09T02:52:00;5.70;;;4.97;;
9260;SDS011;4667;42.726;23.252;2022-09-09T02:54:32;6.83;;;5.60;;
9260;SDS011;4667;42.726;23.252;2022-09-09T02:57:01;6.03;;;4.20;;
9260;SDS011;4667;42.726;23.252;2022-09-09T02:59:34;6.07;;;4.73;;
9260;SDS011;4667;42.726;23.252;2022-09-09T03:02:01;5.77;;;4.27;;
9260;SDS011;4667;42.726;23.252;2022-09-09T03:04:28;6.33;;;5.60;;
9260;SDS011;4667;42.726;23.252;2022-09-09T03:06:56;5.77;;;4.70;;
9260;SDS011;4667;42.726;23.252;2022-09-09T03:09:23;5.70;;;4.87;;
9260;SDS011;4667;42.726;23.252;2022-09-09T03:11:51;5.40;;;4.87;;
9260;SDS011;4667;42.726;23.252;2022-09-09T03:14:17;6.47;;;5.30;;
9260;SDS011;4667;42.726;23.252;2022-09-09T03:16:47;5.87;;;5.00;;
9260;SDS011;4667;42.726;23.252;2022-09-09T03:19:14;7.40;;;4.70;;
9260;SDS011;4667;42.726;23.252;2022-09-09T03:21:41;6.00;;;5.40;;
9260;SDS011;4667;42.726;23.252;2022-09-09T03:24:08;6.87;;;5.70;;
9260;SDS011;4667;42.726;23.252;2022-09-09T03:26:34;6.57;;;4.97;;
9260;SDS011;4667;42.726;23.252;2022-09-09T03:29:02;6.00;;;5.27;;
9260;SDS011;4667;42.726;23.252;2022-09-09T03:31:31;5.97;;;5.33;;
9260;SDS011;4667;42.726;23.252;2022-09-09T03:33:59;6.13;;;5.00;;
9260;SDS011;4667;42.726;23.252;2022-09-09T03:36:26;5.33;;;4.67;;
9260;SDS011;4667;42.726;23.252;2022-09-09T03:39:01;6.17;;;4.50;;
9260;SDS011;4667;42.726;23.252;2022-09-09T03:41:29;6.57;;;5.43;;
9260;SDS011;4667;42.726;23.252;2022-09-09T03:43:55;6.90;;;5.00;;
9260;SDS011;4667;42.726;23.252;2022-09-09T03:46:24;7.73;;;5.37;;
9260;SDS011;4667;42.726;23.252;2022-09-09T03:48:52;5.07;;;4.57;;
9260;SDS011;4667;42.726;23.252;2022-09-09T03:51:20;7.73;;;5.90;;
9260;SDS011;4667;42.726;23.252;2022-09-09T03:53:47;6.80;;;5.60;;
9260;SDS011;4667;42.726;23.252;2022-09-09T03:56:14;7.97;;;5.60;;
9260;SDS011;4667;42.726;23.252;2022-09-09T03:58:41;8.60;;;5.53;;
9260;SDS011;4667;42.726;23.252;2022-09-09T04:01:09;8.23;;;6.30;;
9260;SDS011;4667;42.726;23.252;2022-09-09T04:03:38;5.60;;;4.93;;
9260;SDS011;4667;42.726;23.252;2022-09-09T04:06:05;6.43;;;5.67;;
9260;SDS011;4667;42.726;23.252;2022-09-09T04:08:36;7.73;;;6.03;;
9260;SDS011;4667;42.726;23.252;2022-09-09T04:11:03;7.47;;;6.20;;
9260;SDS011;4667;42.726;23.252;2022-09-09T04:13:31;6.70;;;5.30;;
9260;SDS011;4667;42.726;23.252;2022-09-09T04:15:59;8.80;;;6.10;;
9260;SDS011;4667;42.726;23.252;2022-09-09T04:18:28;6.83;;;5.57;;
9260;SDS011;4667;42.726;23.252;2022-09-09T04:20:55;5.70;;;4.97;;
9260;SDS011;4667;42.726;23.252;2022-09-09T04:23:23;5.63;;;5.03;;
9260;SDS011;4667;42.726;23.252;2022-09-09T04:25:52;7.70;;;5.70;;
9260;SDS011;4667;42.726;23.252;2022-09-09T04:28:22;7.80;;;5.60;;
9260;SDS011;4667;42.726;23.252;2022-09-09T04:30:50;5.67;;;5.17;;
9260;SDS011;4667;42.726;23.252;2022-09-09T04:33:17;9.17;;;5.70;;
9260;SDS011;4667;42.726;23.252;2022-09-09T04:35:44;6.77;;;5.40;;
9260;SDS011;4667;42.726;23.252;2022-09-09T04:38:13;7.13;;;5.77;;
9260;SDS011;4667;42.726;23.252;2022-09-09T04:40:41;6.30;;;5.30;;
9260;SDS011;4667;42.726;23.252;2022-09-09T04:43:09;11.33;;;6.17;;
9260;SDS011;4667;42.726;23.252;2022-09-09T04:45:36;7.23;;;5.70;;
9260;SDS011;4667;42.726;23.252;2022-09-09T04:48:05;7.80;;;6.20;;
9260;SDS011;4667;42.726;23.252;2022-09-09T04:50:32;12.90;;;5.20;;
9260;SDS011;4667;42.726;23.252;2022-09-09T04:52:59;8.07;;;7.07;;
9260;SDS011;4667;42.726;23.252;2022-09-09T04:55:27;10.17;;;7.60;;
9260;SDS011;4667;42.726;23.252;2022-09-09T04:57:53;7.90;;;6.17;;
9260;SDS011;4667;42.726;23.252;2022-09-09T05:00:23;8.10;;;5.63;;
9260;SDS011;4667;42.726;23.252;2022-09-09T05:02:52;6.20;;;5.60;;
9260;SDS011;4667;42.726;23.252;2022-09-09T05:05:18;8.07;;;6.13;;
9260;SDS011;4667;42.726;23.252;2022-09-09T05:07:45;7.43;;;6.13;;
9260;SDS011;4667;42.726;23.252;2022-09-09T05:10:13;7.30;;;6.43;;
9260;SDS011;4667;42.726;23.252;2022-09-09T05:12:40;7.20;;;5.73;;
9260;SDS011;4667;42.726;23.252;2022-09-09T05:15:07;8.33;;;5.50;;
9260;SDS011;4667;42.726;23.252;2022-09-09T05:17:36;10.50;;;6.23;;
9260;SDS011;4667;42.726;23.252;2022-09-09T05:20:03;9.53;;;5.60;;
9260;SDS011;4667;42.726;23.252;2022-09-09T05:22:31;8.10;;;6.23;;
9260;SDS011;4667;42.726;23.252;2022-09-09T05:24:58;7.40;;;5.97;;
9260;SDS011;4667;42.726;23.252;2022-09-09T05:27:26;8.43;;;5.30;;
9260;SDS011;4667;42.726;23.252;2022-09-09T05:29:53;9.40;;;5.90;;
9260;SDS011;4667;42.726;23.252;2022-09-09T05:32:20;6.80;;;6.07;;
9260;SDS011;4667;42.726;23.252;2022-09-09T05:34:48;7.23;;;5.50;;
9260;SDS011;4667;42.726;23.252;2022-09-09T05:37:14;7.70;;;6.27;;
9260;SDS011;4667;42.726;23.252;2022-09-09T05:39:43;8.67;;;6.07;;
9260;SDS011;4667;42.726;23.252;2022-09-09T05:42:10;8.20;;;6.30;;
9260;SDS011;4667;42.726;23.252;2022-09-09T05:44:37;8.07;;;5.53;;
9260;SDS011;4667;42.726;23.252;2022-09-09T05:47:03;7.17;;;5.73;;
9260;SDS011;4667;42.726;23.252;2022-09-09T05:49:30;9.03;;;5.73;;
9260;SDS011;4667;42.726;23.252;2022-09-09T05:51:58;7.23;;;6.00;;
9260;SDS011;4667;42.726;23.252;2022-09-09T05:54:25;10.93;;;8.30;;
9260;SDS011;4667;42.726;23.252;2022-09-09T05:56:52;7.70;;;6.13;;
9260;SDS011;4667;42.726;23.252;2022-09-09T05:59:19;6.90;;;5.97;;
9260;SDS011;4667;42.726;23.252;2022-09-09T06:01:48;9.18;;;6.32;;
9260;SDS011;4667;42.726;23.252;2022-09-09T06:04:15;7.47;;;6.50;;
9260;SDS011;4667;42.726;23.252;2022-09-09T06:06:41;10.00;;;6.63;;
9260;SDS011;4667;42.726;23.252;2022-09-09T06:09:10;8.27;;;7.03;;
9260;SDS011;4667;42.726;23.252;2022-09-09T06:11:37;11.13;;;7.18;;
9260;SDS011;4667;42.726;23.252;2022-09-09T06:14:05;7.63;;;6.40;;
9260;SDS011;4667;42.726;23.252;2022-09-09T06:16:32;10.00;;;6.82;;
9260;SDS011;4667;42.726;23.252;2022-09-09T06:18:59;8.82;;;6.85;;
9260;SDS011;4667;42.726;23.252;2022-09-09T06:21:28;7.40;;;5.87;;
9260;SDS011;4667;42.726;23.252;2022-09-09T06:23:56;7.78;;;6.97;;
9260;SDS011;4667;42.726;23.252;2022-09-09T06:26:25;8.27;;;6.40;;
9260;SDS011;4667;42.726;23.252;2022-09-09T06:28:53;8.32;;;6.45;;
9260;SDS011;4667;42.726;23.252;2022-09-09T06:31:23;8.13;;;5.90;;
9260;SDS011;4667;42.726;23.252;2022-09-09T06:33:51;7.50;;;5.97;;
9260;SDS011;4667;42.726;23.252;2022-09-09T06:36:20;6.63;;;5.93;;
9260;SDS011;4667;42.726;23.252;2022-09-09T06:38:49;15.40;;;6.20;;
9260;SDS011;4667;42.726;23.252;2022-09-09T06:41:16;8.65;;;6.80;;
9260;SDS011;4667;42.726;23.252;2022-09-09T06:43:46;10.13;;;6.05;;
9260;SDS011;4667;42.726;23.252;2022-09-09T06:46:13;7.45;;;5.75;;
9260;SDS011;4667;42.726;23.252;2022-09-09T06:48:41;9.05;;;6.30;;
9260;SDS011;4667;42.726;23.252;2022-09-09T06:51:10;10.25;;;5.85;;
9260;SDS011;4667;42.726;23.252;2022-09-09T06:53:39;7.70;;;5.93;;
9260;SDS011;4667;42.726;23.252;2022-09-09T06:56:17;8.60;;;6.47;;
9260;SDS011;4667;42.726;23.252;2022-09-09T06:58:47;6.93;;;5.15;;
9260;SDS011;4667;42.726;23.252;2022-09-09T07:01:15;9.52;;;5.07;;
9260;SDS011;4667;42.726;23.252;2022-09-09T07:03:45;7.10;;;4.55;;
9260;SDS011;4667;42.726;23.252;2022-09-09T07:06:14;8.77;;;5.30;;
9260;SDS011;4667;42.726;23.252;2022-09-09T07:08:43;7.20;;;4.60;;
9260;SDS011;4667;42.726;23.252;2022-09-09T07:11:10;6.03;;;4.93;;
9260;SDS011;4667;42.726;23.252;2022-09-09T07:13:37;7.18;;;4.75;;
9260;SDS011;4667;42.726;23.252;2022-09-09T07:16:06;6.18;;;5.20;;
9260;SDS011;4667;42.726;23.252;2022-09-09T07:18:34;5.25;;;4.75;;
9260;SDS011;4667;42.726;23.252;2022-09-09T07:21:01;5.93;;;4.88;;
9260;SDS011;4667;42.726;23.252;2022-09-09T07:23:28;8.13;;;5.68;;
9260;SDS011;4667;42.726;23.252;2022-09-09T07:25:56;6.47;;;4.90;;
9260;SDS011;4667;42.726;23.252;2022-09-09T07:28:24;8.85;;;6.15;;
9260;SDS011;4667;42.726;23.252;2022-09-09T07:30:54;5.53;;;4.40;;
9260;SDS011;4667;42.726;23.252;2022-09-09T07:33:23;7.22;;;5.22;;
9260;SDS011;4667;42.726;23.252;2022-09-09T07:35:51;8.27;;;5.28;;
9260;SDS011;4667;42.726;23.252;2022-09-09T07:38:19;4.93;;;4.43;;
9260;SDS011;4667;42.726;23.252;2022-09-09T07:40:47;9.90;;;5.30;;
9260;SDS011;4667;42.726;23.252;2022-09-09T07:43:14;7.68;;;4.85;;
9260;SDS011;4667;42.726;23.252;2022-09-09T07:45:42;6.13;;;3.78;;
9260;SDS011;4667;42.726;23.252;2022-09-09T07:48:09;5.15;;;3.80;;
9260;SDS011;4667;42.726;23.252;2022-09-09T07:50:37;5.70;;;4.43;;
9260;SDS011;4667;42.726;23.252;2022-09-09T07:53:04;6.93;;;4.70;;
9260;SDS011;4667;42.726;23.252;2022-09-09T07:55:31;7.18;;;5.05;;
9260;SDS011;4667;42.726;23.252;2022-09-09T07:57:58;5.57;;;4.07;;
9260;SDS011;4667;42.726;23.252;2022-09-09T08:00:25;4.93;;;4.43;;
9260;SDS011;4667;42.726;23.252;2022-09-09T08:02:52;11.10;;;3.95;;
9260;SDS011;4667;42.726;23.252;2022-09-09T08:05:20;5.18;;;4.03;;
9260;SDS011;4667;42.726;23.252;2022-09-09T08:07:48;5.65;;;3.85;;
9260;SDS011;4667;42.726;23.252;2022-09-09T08:10:15;5.32;;;3.55;;
9260;SDS011;4667;42.726;23.252;2022-09-09T08:12:43;4.75;;;3.50;;
9260;SDS011;4667;42.726;23.252;2022-09-09T08:15:10;4.03;;;3.08;;
9260;SDS011;4667;42.726;23.252;2022-09-09T08:17:37;4.10;;;3.20;;
9260;SDS011;4667;42.726;23.252;2022-09-09T08:20:04;4.93;;;3.78;;
9260;SDS011;4667;42.726;23.252;2022-09-09T08:22:31;5.38;;;3.35;;
9260;SDS011;4667;42.726;23.252;2022-09-09T08:25:00;3.75;;;3.03;;
9260;SDS011;4667;42.726;23.252;2022-09-09T08:27:31;3.75;;;3.13;;
9260;SDS011;4667;42.726;23.252;2022-09-09T08:29:58;4.10;;;3.70;;
9260;SDS011;4667;42.726;23.252;2022-09-09T08:32:25;6.38;;;4.03;;
9260;SDS011;4667;42.726;23.252;2022-09-09T08:34:52;11.27;;;4.22;;
9260;SDS011;4667;42.726;23.252;2022-09-09T08:37:19;4.35;;;3.92;;
9260;SDS011;4667;42.726;23.252;2022-09-09T08:39:46;5.53;;;3.70;;
9260;SDS011;4667;42.726;23.252;2022-09-09T08:45:10;6.75;;;3.70;;
9260;SDS011;4667;42.726;23.252;2022-09-09T08:47:49;5.05;;;3.70;;
9260;SDS011;4667;42.726;23.252;2022-09-09T08:50:25;4.32;;;3.05;;
9260;SDS011;4667;42.726;23.252;2022-09-09T08:52:55;6.88;;;4.38;;
9260;SDS011;4667;42.726;23.252;2022-09-09T08:55:29;4.35;;;3.60;;
9260;SDS011;4667;42.726;23.252;2022-09-09T08:58:08;5.78;;;3.83;;
9260;SDS011;4667;42.726;23.252;2022-09-09T09:00:42;3.88;;;2.80;;
9260;SDS011;4667;42.726;23.252;2022-09-09T09:03:19;4.85;;;3.72;;
9260;SDS011;4667;42.726;23.252;2022-09-09T09:05:56;3.63;;;2.97;;
9260;SDS011;4667;42.726;23.252;2022-09-09T09:08:31;3.88;;;2.92;;
9260;SDS011;4667;42.726;23.252;2022-09-09T09:11:06;4.93;;;3.22;;
9260;SDS011;4667;42.726;23.252;2022-09-09T09:13:43;8.73;;;3.85;;
9260;SDS011;4667;42.726;23.252;2022-09-09T09:16:19;3.67;;;3.20;;
9260;SDS011;4667;42.726;23.252;2022-09-09T09:18:51;5.60;;;3.70;;
9260;SDS011;4667;42.726;23.252;2022-09-09T09:21:21;4.40;;;3.50;;
9260;SDS011;4667;42.726;23.252;2022-09-09T09:23:56;6.45;;;3.58;;
9260;SDS011;4667;42.726;23.252;2022-09-09T09:26:25;3.67;;;3.08;;
9260;SDS011;4667;42.726;23.252;2022-09-09T09:28:59;3.55;;;2.72;;
9260;SDS011;4667;42.726;23.252;2022-09-09T09:31:34;6.20;;;3.30;;
9260;SDS011;4667;42.726;23.252;2022-09-09T09:34:01;4.10;;;3.03;;
9260;SDS011;4667;42.726;23.252;2022-09-09T09:36:33;5.80;;;3.40;;
9260;SDS011;4667;42.726;23.252;2022-09-09T09:39:01;4.90;;;3.10;;
9260;SDS011;4667;42.726;23.252;2022-09-09T09:41:31;5.57;;;3.58;;
9260;SDS011;4667;42.726;23.252;2022-09-09T09:44:01;10.30;;;3.88;;
9260;SDS011;4667;42.726;23.252;2022-09-09T09:46:29;4.28;;;3.58;;
9260;SDS011;4667;42.726;23.252;2022-09-09T09:48:57;4.20;;;3.08;;
9260;SDS011;4667;42.726;23.252;2022-09-09T09:51:25;4.38;;;3.55;;
9260;SDS011;4667;42.726;23.252;2022-09-09T09:53:54;5.97;;;3.50;;
9260;SDS011;4667;42.726;23.252;2022-09-09T09:56:34;4.80;;;3.55;;
9260;SDS011;4667;42.726;23.252;2022-09-09T09:59:04;3.35;;;3.05;;
9260;SDS011;4667;42.726;23.252;2022-09-09T10:01:31;5.22;;;3.45;;
9260;SDS011;4667;42.726;23.252;2022-09-09T10:04:00;5.32;;;3.67;;
9260;SDS011;4667;42.726;23.252;2022-09-09T10:06:29;3.92;;;2.92;;
9260;SDS011;4667;42.726;23.252;2022-09-09T10:08:56;3.85;;;2.85;;
9260;SDS011;4667;42.726;23.252;2022-09-09T10:11:28;5.72;;;3.42;;
9260;SDS011;4667;42.726;23.252;2022-09-09T10:14:05;5.10;;;3.22;;
9260;SDS011;4667;42.726;23.252;2022-09-09T10:16:47;6.75;;;3.50;;
9260;SDS011;4667;42.726;23.252;2022-09-09T10:19:28;15.65;;;9.88;;
9260;SDS011;4667;42.726;23.252;2022-09-09T10:22:02;14.23;;;8.20;;
9260;SDS011;4667;42.726;23.252;2022-09-09T10:24:41;5.80;;;3.80;;
9260;SDS011;4667;42.726;23.252;2022-09-09T10:27:19;4.82;;;4.07;;
9260;SDS011;4667;42.726;23.252;2022-09-09T10:29:59;5.00;;;3.58;;
9260;SDS011;4667;42.726;23.252;2022-09-09T10:32:37;4.85;;;3.40;;
9260;SDS011;4667;42.726;23.252;2022-09-09T10:35:13;5.28;;;4.20;;
9260;SDS011;4667;42.726;23.252;2022-09-09T10:37:53;8.38;;;4.35;;
9260;SDS011;4667;42.726;23.252;2022-09-09T10:40:32;4.20;;;3.50;;
9260;SDS011;4667;42.726;23.252;2022-09-09T10:43:05;5.72;;;3.80;;
9260;SDS011;4667;42.726;23.252;2022-09-09T10:45:43;7.18;;;4.35;;
9260;SDS011;4667;42.726;23.252;2022-09-09T10:48:24;5.05;;;3.83;;
9260;SDS011;4667;42.726;23.252;2022-09-09T10:51:05;6.28;;;4.00;;
9260;SDS011;4667;42.726;23.252;2022-09-09T10:53:51;4.50;;;4.03;;
9260;SDS011;4667;42.726;23.252;2022-09-09T10:56:28;5.15;;;4.18;;
9260;SDS011;4667;42.726;23.252;2022-09-09T10:58:56;5.00;;;3.33;;
9260;SDS011;4667;42.726;23.252;2022-09-09T11:01:28;5.45;;;3.97;;
9260;SDS011;4667;42.726;23.252;2022-09-09T11:04:00;10.60;;;5.15;;
9260;SDS011;4667;42.726;23.252;2022-09-09T11:06:32;6.10;;;3.65;;
9260;SDS011;4667;42.726;23.252;2022-09-09T11:09:07;5.00;;;3.80;;
9260;SDS011;4667;42.726;23.252;2022-09-09T11:11:43;3.97;;;3.58;;
9260;SDS011;4667;42.726;23.252;2022-09-09T11:14:18;4.18;;;3.78;;
9260;SDS011;4667;42.726;23.252;2022-09-09T11:16:52;3.75;;;3.17;;
9260;SDS011;4667;42.726;23.252;2022-09-09T11:19:24;6.65;;;4.05;;
9260;SDS011;4667;42.726;23.252;2022-09-09T11:21:55;5.72;;;4.65;;
9260;SDS011;4667;42.726;23.252;2022-09-09T11:24:23;4.72;;;3.40;;
9260;SDS011;4667;42.726;23.252;2022-09-09T11:26:55;8.20;;;3.35;;
9260;SDS011;4667;42.726;23.252;2022-09-09T11:29:40;6.20;;;3.97;;
9260;SDS011;4667;42.726;23.252;2022-09-09T11:32:24;5.45;;;3.97;;
9260;SDS011;4667;42.726;23.252;2022-09-09T11:35:09;5.35;;;4.68;;
9260;SDS011;4667;42.726;23.252;2022-09-09T11:38:01;5.97;;;3.88;;
9260;SDS011;4667;42.726;23.252;2022-09-09T11:40:43;4.10;;;3.47;;
9260;SDS011;4667;42.726;23.252;2022-09-09T11:43:11;4.60;;;3.70;;
9260;SDS011;4667;42.726;23.252;2022-09-09T11:45:41;5.75;;;4.28;;
9260;SDS011;4667;42.726;23.252;2022-09-09T11:48:24;4.38;;;3.75;;
9260;SDS011;4667;42.726;23.252;2022-09-09T11:50:57;4.70;;;3.78;;
9260;SDS011;4667;42.726;23.252;2022-09-09T11:53:25;5.22;;;3.50;;
9260;SDS011;4667;42.726;23.252;2022-09-09T11:56:03;3.80;;;3.38;;
9260;SDS011;4667;42.726;23.252;2022-09-09T11:58:40;7.00;;;4.13;;
9260;SDS011;4667;42.726;23.252;2022-09-09T12:01:25;4.55;;;3.80;;
9260;SDS011;4667;42.726;23.252;2022-09-09T12:03:59;5.32;;;3.50;;
9260;SDS011;4667;42.726;23.252;2022-09-09T12:06:41;3.83;;;3.10;;
9260;SDS011;4667;42.726;23.252;2022-09-09T12:09:09;4.05;;;3.55;;
9260;SDS011;4667;42.726;23.252;2022-09-09T12:11:44;4.30;;;3.90;;
9260;SDS011;4667;42.726;23.252;2022-09-09T12:14:19;4.13;;;3.58;;
9260;SDS011;4667;42.726;23.252;2022-09-09T12:16:47;5.65;;;3.90;;
9260;SDS011;4667;42.726;23.252;2022-09-09T12:19:16;4.20;;;3.40;;
9260;SDS011;4667;42.726;23.252;2022-09-09T12:21:45;4.20;;;3.70;;
9260;SDS011;4667;42.726;23.252;2022-09-09T12:24:19;4.30;;;3.90;;
9260;SDS011;4667;42.726;23.252;2022-09-09T12:26:54;4.53;;;3.53;;
9260;SDS011;4667;42.726;23.252;2022-09-09T12:29:27;4.57;;;3.80;;
9260;SDS011;4667;42.726;23.252;2022-09-09T12:32:04;4.88;;;4.03;;
9260;SDS011;4667;42.726;23.252;2022-09-09T12:34:37;4.45;;;4.03;;
9260;SDS011;4667;42.726;23.252;2022-09-09T12:37:05;4.28;;;3.80;;
9260;SDS011;4667;42.726;23.252;2022-09-09T12:39:41;5.28;;;4.53;;
9260;SDS011;4667;42.726;23.252;2022-09-09T12:42:18;4.53;;;3.70;;
9260;SDS011;4667;42.726;23.252;2022-09-09T12:44:50;4.78;;;3.35;;
9260;SDS011;4667;42.726;23.252;2022-09-09T12:47:18;7.28;;;5.20;;
9260;SDS011;4667;42.726;23.252;2022-09-09T12:49:49;4.57;;;3.85;;
9260;SDS011;4667;42.726;23.252;2022-09-09T12:52:18;5.00;;;3.40;;
9260;SDS011;4667;42.726;23.252;2022-09-09T12:54:50;3.80;;;3.28;;
9260;SDS011;4667;42.726;23.252;2022-09-09T12:57:18;7.15;;;2.58;;
9260;SDS011;4667;42.726;23.252;2022-09-09T12:59:45;6.75;;;3.50;;
9260;SDS011;4667;42.726;23.252;2022-09-09T13:02:20;6.85;;;4.25;;
9260;SDS011;4667;42.726;23.252;2022-09-09T13:04:48;3.78;;;2.90;;
9260;SDS011;4667;42.726;23.252;2022-09-09T13:07:17;3.90;;;2.95;;
9260;SDS011;4667;42.726;23.252;2022-09-09T13:09:45;3.60;;;2.95;;
9260;SDS011;4667;42.726;23.252;2022-09-09T13:12:19;2.83;;;2.45;;
9260;SDS011;4667;42.726;23.252;2022-09-09T13:14:48;3.67;;;2.80;;
9260;SDS011;4667;42.726;23.252;2022-09-09T13:17:17;4.70;;;2.78;;
9260;SDS011;4667;42.726;23.252;2022-09-09T13:19:45;3.80;;;2.63;;
9260;SDS011;4667;42.726;23.252;2022-09-09T13:22:13;4.82;;;2.92;;
9260;SDS011;4667;42.726;23.252;2022-09-09T13:24:45;3.40;;;2.70;;
9260;SDS011;4667;42.726;23.252;2022-09-09T13:27:24;5.80;;;2.70;;
9260;SDS011;4667;42.726;23.252;2022-09-09T13:29:54;5.45;;;3.30;;
9260;SDS011;4667;42.726;23.252;2022-09-09T13:32:21;4.18;;;2.50;;
9260;SDS011;4667;42.726;23.252;2022-09-09T13:34:50;3.35;;;3.05;;
9260;SDS011;4667;42.726;23.252;2022-09-09T13:37:20;3.25;;;2.95;;
9260;SDS011;4667;42.726;23.252;2022-09-09T13:39:53;4.63;;;3.35;;
9260;SDS011;4667;42.726;23.252;2022-09-09T13:42:24;4.57;;;3.70;;
9260;SDS011;4667;42.726;23.252;2022-09-09T13:44:52;5.80;;;3.30;;
9260;SDS011;4667;42.726;23.252;2022-09-09T13:47:22;3.47;;;3.08;;
9260;SDS011;4667;42.726;23.252;2022-09-09T13:49:56;4.13;;;2.88;;
9260;SDS011;4667;42.726;23.252;2022-09-09T13:52:30;4.25;;;3.70;;
9260;SDS011;4667;42.726;23.252;2022-09-09T13:54:57;4.18;;;3.13;;
9260;SDS011;4667;42.726;23.252;2022-09-09T13:57:24;2.92;;;2.60;;
9260;SDS011;4667;42.726;23.252;2022-09-09T13:59:53;6.03;;;3.03;;
9260;SDS011;4667;42.726;23.252;2022-09-09T14:02:21;5.50;;;3.00;;
9260;SDS011;4667;42.726;23.252;2022-09-09T14:04:48;3.47;;;2.67;;
9260;SDS011;4667;42.726;23.252;2022-09-09T14:07:16;3.67;;;3.00;;
9260;SDS011;4667;42.726;23.252;2022-09-09T14:09:45;3.03;;;2.60;;
9260;SDS011;4667;42.726;23.252;2022-09-09T14:12:15;6.60;;;2.75;;
9260;SDS011;4667;42.726;23.252;2022-09-09T14:14:43;4.22;;;2.83;;
9260;SDS011;4667;42.726;23.252;2022-09-09T14:17:10;3.40;;;2.95;;
9260;SDS011;4667;42.726;23.252;2022-09-09T14:19:37;4.88;;;2.97;;
9260;SDS011;4667;42.726;23.252;2022-09-09T14:22:03;2.78;;;2.20;;
9260;SDS011;4667;42.726;23.252;2022-09-09T14:24:30;4.20;;;2.65;;
9260;SDS011;4667;42.726;23.252;2022-09-09T14:26:58;6.78;;;3.58;;
9260;SDS011;4667;42.726;23.252;2022-09-09T14:29:25;2.78;;;2.42;;
9260;SDS011;4667;42.726;23.252;2022-09-09T14:31:51;3.85;;;2.90;;
9260;SDS011;4667;42.726;23.252;2022-09-09T14:34:18;4.35;;;3.15;;
9260;SDS011;4667;42.726;23.252;2022-09-09T14:36:45;5.05;;;2.83;;
9260;SDS011;4667;42.726;23.252;2022-09-09T14:39:12;4.18;;;2.67;;
9260;SDS011;4667;42.726;23.252;2022-09-09T14:41:38;3.28;;;2.97;;
9260;SDS011;4667;42.726;23.252;2022-09-09T14:44:06;4.03;;;3.13;;
9260;SDS011;4667;42.726;23.252;2022-09-09T14:46:34;2.88;;;2.38;;
9260;SDS011;4667;42.726;23.252;2022-09-09T14:49:00;4.53;;;2.78;;
9260;SDS011;4667;42.726;23.252;2022-09-09T14:51:27;3.92;;;3.08;;
9260;SDS011;4667;42.726;23.252;2022-09-09T14:53:53;3.95;;;3.00;;
9260;SDS011;4667;42.726;23.252;2022-09-09T14:56:21;3.45;;;2.83;;
9260;SDS011;4667;42.726;23.252;2022-09-09T14:58:49;3.42;;;2.60;;
9260;SDS011;4667;42.726;23.252;2022-09-09T15:01:19;4.13;;;3.00;;
9260;SDS011;4667;42.726;23.252;2022-09-09T15:03:48;3.67;;;2.85;;
9260;SDS011;4667;42.726;23.252;2022-09-09T15:06:17;5.78;;;3.25;;
9260;SDS011;4667;42.726;23.252;2022-09-09T15:08:44;4.07;;;2.95;;
9260;SDS011;4667;42.726;23.252;2022-09-09T15:11:11;8.23;;;2.85;;
9260;SDS011;4667;42.726;23.252;2022-09-09T15:13:39;6.40;;;3.05;;
9260;SDS011;4667;42.726;23.252;2022-09-09T15:16:08;5.20;;;2.70;;
9260;SDS011;4667;42.726;23.252;2022-09-09T15:18:37;3.90;;;2.05;;
9260;SDS011;4667;42.726;23.252;2022-09-09T15:21:08;2.95;;;2.30;;
9260;SDS011;4667;42.726;23.252;2022-09-09T15:23:35;4.55;;;2.47;;
9260;SDS011;4667;42.726;23.252;2022-09-09T15:26:03;3.60;;;2.65;;